Terminal Aerodrome Forecast
Issued by NWS Central Illinois

Home | Current Version | Previous Version | Text Only | Print | Product List | Glossary On
Versions: 1 2 3 4 5 6 7 8 9 10 11 12 13 14 15 16 17 18 19
000
FTUS43 KILX 291700 RRA
TAFPIA
TAF
KPIA 291741Z 2918/3018 18008KT P6SM SCT050
     FM292000 18008KT P6SM VCTS SCT035CB BKN050
     FM300200 18008KT 5SM -RA BR VCTS SCT035CB BKN050
     FM300800 18008KT P6SM BKN050
     FM301400 22010KT P6SM SCT035 BKN050=

USA.gov is the U.S. government's official web portal to all federal, state and local government web resources and services.